DAL2095 KSLC-KBOI
Flight info
| Callsign | DAL2095 |
|---|---|
| Flight time | 0h 52m |
| Altitude | 26000 |
| Route | CGULL1 TWF BROPH SPUUD4 |
| Aircraft | B738/M-SDE2E3FGHIRWXY/LB1 |
Departure
| Time | 2026-05-04 16:08 |
|---|---|
| Airport | Salt Lake City International Airport (KSLC) |
Arrival
| Time | 2026-05-04 17:00 |
|---|---|
| Airport | Boise Air Terminal/Gowen Field (KBOI) |
| Time | Latitude | Longitude | Altitude | Speed | Heading |
|---|---|---|---|---|---|
| 2026-05-04 14:56 | 40.78575 | -111.99213 | 4230 ft | 0 kts | 161° |
| 2026-05-04 15:53 | 40.78577 | -111.99214 | 4230 ft | 2 kts | 161° |
| 2026-05-04 15:53 | 40.78601 | -111.99225 | 4229 ft | 4 kts | 160° |
| 2026-05-04 15:54 | 40.78625 | -111.99240 | 4230 ft | 4 kts | 146° |
| 2026-05-04 15:54 | 40.78645 | -111.99263 | 4230 ft | 4 kts | 121° |
| 2026-05-04 15:54 | 40.78652 | -111.99292 | 4230 ft | 2 kts | 85° |
| 2026-05-04 15:54 | 40.78652 | -111.99298 | 4230 ft | 0 kts | 85° |
| 2026-05-04 15:59 | 40.78652 | -111.99289 | 4229 ft | 5 kts | 85° |
| 2026-05-04 15:59 | 40.78656 | -111.99218 | 4230 ft | 11 kts | 85° |
| 2026-05-04 16:00 | 40.78663 | -111.99109 | 4230 ft | 14 kts | 84° |
| 2026-05-04 16:00 | 40.78675 | -111.98967 | 4230 ft | 16 kts | 84° |
| 2026-05-04 16:00 | 40.78684 | -111.98828 | 4230 ft | 15 kts | 84° |
| 2026-05-04 16:00 | 40.78693 | -111.98693 | 4230 ft | 14 kts | 85° |
| 2026-05-04 16:01 | 40.78699 | -111.98574 | 4230 ft | 12 kts | 85° |
| 2026-05-04 16:01 | 40.78711 | -111.98444 | 4230 ft | 15 kts | 83° |
| 2026-05-04 16:01 | 40.78721 | -111.98309 | 4230 ft | 15 kts | 85° |
| 2026-05-04 16:01 | 40.78730 | -111.98170 | 4230 ft | 16 kts | 84° |
| 2026-05-04 16:02 | 40.78739 | -111.98026 | 4230 ft | 16 kts | 85° |
| 2026-05-04 16:02 | 40.78747 | -111.97888 | 4230 ft | 14 kts | 84° |
| 2026-05-04 16:02 | 40.78801 | -111.97695 | 4229 ft | 11 kts | 9° |
| 2026-05-04 16:03 | 40.78898 | -111.97701 | 4230 ft | 16 kts | 354° |
| 2026-05-04 16:03 | 40.79019 | -111.97713 | 4230 ft | 18 kts | 357° |
| 2026-05-04 16:03 | 40.79139 | -111.97728 | 4230 ft | 17 kts | 355° |
| 2026-05-04 16:03 | 40.79275 | -111.97745 | 4230 ft | 21 kts | 354° |
| 2026-05-04 16:04 | 40.79422 | -111.97764 | 4230 ft | 21 kts | 355° |
| 2026-05-04 16:04 | 40.79716 | -111.97794 | 4230 ft | 22 kts | 354° |
| 2026-05-04 16:04 | 40.79868 | -111.97812 | 4230 ft | 21 kts | 355° |
| 2026-05-04 16:05 | 40.80013 | -111.97831 | 4230 ft | 21 kts | 355° |
| 2026-05-04 16:05 | 40.80157 | -111.97850 | 4230 ft | 20 kts | 357° |
| 2026-05-04 16:05 | 40.80417 | -111.97827 | 4231 ft | 17 kts | 355° |
| 2026-05-04 16:06 | 40.80528 | -111.97840 | 4230 ft | 15 kts | 354° |
| 2026-05-04 16:06 | 40.80745 | -111.97826 | 4229 ft | 6 kts | 66° |
| 2026-05-04 16:07 | 40.80733 | -111.97730 | 4228 ft | 10 kts | 117° |
| 2026-05-04 16:07 | 40.80460 | -111.97662 | 4232 ft | 68 kts | 175° |
| 2026-05-04 16:08 | 40.79745 | -111.97576 | 4229 ft | 136 kts | 175° |
| 2026-05-04 16:08 | 40.75826 | -111.97069 | 5340 ft | 218 kts | 175° |
| 2026-05-04 16:09 | 40.73247 | -111.99156 | 6292 ft | 245 kts | 250° |
| 2026-05-04 16:09 | 40.74166 | -112.03304 | 7307 ft | 263 kts | 322° |
| 2026-05-04 16:10 | 40.77206 | -112.06201 | 8391 ft | 274 kts | 318° |
| 2026-05-04 16:11 | 40.81545 | -112.11390 | 9995 ft | 283 kts | 316° |
| 2026-05-04 16:11 | 40.82995 | -112.13159 | 10530 ft | 285 kts | 316° |
| 2026-05-04 16:12 | 40.87666 | -112.18868 | 11717 ft | 327 kts | 316° |
| 2026-05-04 16:12 | 40.91591 | -112.23672 | 12587 ft | 356 kts | 316° |
| 2026-05-04 16:13 | 40.95029 | -112.27885 | 13286 ft | 361 kts | 316° |
| 2026-05-04 16:14 | 40.98699 | -112.32389 | 14023 ft | 363 kts | 316° |
| 2026-05-04 16:14 | 41.02448 | -112.37000 | 15101 ft | 371 kts | 316° |
| 2026-05-04 16:15 | 41.06629 | -112.42129 | 16503 ft | 377 kts | 319° |
| 2026-05-04 16:16 | 41.10537 | -112.45656 | 17551 ft | 384 kts | 328° |
| 2026-05-04 16:16 | 41.17394 | -112.51366 | 19280 ft | 392 kts | 324° |
| 2026-05-04 16:17 | 41.21778 | -112.55800 | 20334 ft | 399 kts | 321° |
| 2026-05-04 16:18 | 41.27656 | -112.61893 | 21687 ft | 406 kts | 319° |
| 2026-05-04 16:18 | 41.30276 | -112.65437 | 22451 ft | 405 kts | 311° |
| 2026-05-04 16:19 | 41.35252 | -112.72855 | 24156 ft | 399 kts | 311° |
| 2026-05-04 16:19 | 41.38972 | -112.78318 | 25337 ft | 396 kts | 311° |
| 2026-05-04 16:20 | 41.44382 | -112.86438 | 25912 ft | 391 kts | 310° |
| 2026-05-04 16:20 | 41.47957 | -112.91940 | 25912 ft | 393 kts | 310° |
| 2026-05-04 16:21 | 41.53335 | -113.00210 | 25910 ft | 393 kts | 310° |
| 2026-05-04 16:22 | 41.56921 | -113.05725 | 25901 ft | 393 kts | 310° |
| 2026-05-04 16:22 | 41.62282 | -113.13981 | 25915 ft | 390 kts | 310° |
| 2026-05-04 16:23 | 41.67574 | -113.22156 | 25917 ft | 390 kts | 310° |
| 2026-05-04 16:24 | 41.74663 | -113.33141 | 25910 ft | 391 kts | 310° |
| 2026-05-04 16:25 | 41.78224 | -113.38675 | 25909 ft | 391 kts | 310° |
| 2026-05-04 16:26 | 41.85340 | -113.49764 | 25906 ft | 393 kts | 310° |
| 2026-05-04 16:26 | 41.90679 | -113.58110 | 25905 ft | 393 kts | 310° |
| 2026-05-04 16:27 | 41.94240 | -113.63690 | 25906 ft | 393 kts | 310° |
| 2026-05-04 16:28 | 41.99555 | -113.72038 | 25915 ft | 393 kts | 310° |
| 2026-05-04 16:28 | 42.04866 | -113.80405 | 25908 ft | 392 kts | 310° |
| 2026-05-04 16:29 | 42.11946 | -113.91595 | 25905 ft | 392 kts | 310° |
| 2026-05-04 16:30 | 42.14756 | -113.96046 | 25906 ft | 392 kts | 310° |
| 2026-05-04 16:31 | 42.17873 | -114.00988 | 25908 ft | 392 kts | 310° |
| 2026-05-04 16:31 | 42.23179 | -114.09379 | 25916 ft | 392 kts | 310° |
| 2026-05-04 16:32 | 42.28468 | -114.17767 | 25899 ft | 393 kts | 310° |
| 2026-05-04 16:33 | 42.32005 | -114.23392 | 25895 ft | 393 kts | 310° |
| 2026-05-04 16:33 | 42.35533 | -114.29015 | 25910 ft | 392 kts | 310° |
| 2026-05-04 16:34 | 42.39052 | -114.34633 | 25904 ft | 391 kts | 310° |
| 2026-05-04 16:34 | 42.40793 | -114.37415 | 25914 ft | 391 kts | 310° |
| 2026-05-04 16:35 | 42.46072 | -114.45871 | 25918 ft | 390 kts | 310° |
| 2026-05-04 16:35 | 42.51316 | -114.54255 | 25912 ft | 390 kts | 311° |
| 2026-05-04 16:36 | 42.53077 | -114.57057 | 25907 ft | 390 kts | 311° |
| 2026-05-04 16:36 | 42.56598 | -114.62671 | 25903 ft | 391 kts | 311° |
| 2026-05-04 16:37 | 42.60118 | -114.68297 | 25907 ft | 391 kts | 311° |
| 2026-05-04 16:37 | 42.61871 | -114.71105 | 25900 ft | 386 kts | 311° |
| 2026-05-04 16:37 | 42.65251 | -114.76528 | 25903 ft | 369 kts | 311° |
| 2026-05-04 16:38 | 42.68557 | -114.81837 | 25802 ft | 369 kts | 311° |
| 2026-05-04 16:39 | 42.73517 | -114.89677 | 24863 ft | 362 kts | 314° |
| 2026-05-04 16:39 | 42.76971 | -114.94595 | 24127 ft | 358 kts | 314° |
| 2026-05-04 16:40 | 42.80397 | -114.99453 | 23380 ft | 354 kts | 314° |
| 2026-05-04 16:40 | 42.83775 | -115.04292 | 22640 ft | 350 kts | 314° |
| 2026-05-04 16:41 | 42.87103 | -115.09084 | 21907 ft | 346 kts | 314° |
| 2026-05-04 16:41 | 42.92023 | -115.16184 | 20823 ft | 341 kts | 313° |
| 2026-05-04 16:42 | 42.96809 | -115.23125 | 19856 ft | 333 kts | 313° |
| 2026-05-04 16:43 | 42.99963 | -115.27711 | 19165 ft | 330 kts | 313° |
| 2026-05-04 16:43 | 43.03086 | -115.32258 | 18486 ft | 326 kts | 313° |
| 2026-05-04 16:43 | 43.04636 | -115.34517 | 18129 ft | 325 kts | 313° |
| 2026-05-04 16:44 | 43.10760 | -115.43462 | 16770 ft | 318 kts | 313° |
| 2026-05-04 16:45 | 43.13768 | -115.47864 | 16082 ft | 315 kts | 313° |
| 2026-05-04 16:46 | 43.18208 | -115.54363 | 15105 ft | 310 kts | 313° |
| 2026-05-04 16:46 | 43.21141 | -115.58660 | 14439 ft | 307 kts | 313° |
| 2026-05-04 16:47 | 43.24019 | -115.62881 | 13942 ft | 302 kts | 313° |
| 2026-05-04 16:47 | 43.26875 | -115.67077 | 13299 ft | 299 kts | 312° |
| 2026-05-04 16:48 | 43.29893 | -115.74370 | 12405 ft | 293 kts | 296° |
| 2026-05-04 16:48 | 43.30804 | -115.76887 | 12107 ft | 292 kts | 296° |
| 2026-05-04 16:49 | 43.32627 | -115.81834 | 11500 ft | 289 kts | 297° |
| 2026-05-04 16:49 | 43.34446 | -115.86718 | 10877 ft | 284 kts | 297° |
| 2026-05-04 16:50 | 43.36229 | -115.91510 | 10280 ft | 281 kts | 297° |
| 2026-05-04 16:50 | 43.37962 | -115.96172 | 9993 ft | 267 kts | 297° |
| 2026-05-04 16:51 | 43.39623 | -116.00650 | 9453 ft | 259 kts | 297° |
| 2026-05-04 16:51 | 43.40441 | -116.02859 | 9191 ft | 258 kts | 297° |
| 2026-05-04 16:51 | 43.42062 | -116.07239 | 8656 ft | 256 kts | 297° |
| 2026-05-04 16:52 | 43.43666 | -116.11594 | 8116 ft | 254 kts | 297° |
| 2026-05-04 16:52 | 43.44452 | -116.13767 | 7854 ft | 253 kts | 297° |
| 2026-05-04 16:53 | 43.45977 | -116.18006 | 7541 ft | 241 kts | 296° |
| 2026-05-04 16:53 | 43.48155 | -116.24077 | 7269 ft | 234 kts | 297° |
| 2026-05-04 16:54 | 43.48868 | -116.26066 | 7092 ft | 231 kts | 297° |
| 2026-05-04 16:55 | 43.51652 | -116.33833 | 7009 ft | 226 kts | 297° |
| 2026-05-04 16:55 | 43.53028 | -116.37668 | 6507 ft | 221 kts | 297° |
| 2026-05-04 16:56 | 43.54394 | -116.41474 | 5743 ft | 221 kts | 297° |
| 2026-05-04 16:56 | 43.57929 | -116.43085 | 5028 ft | 197 kts | 34° |
| 2026-05-04 16:57 | 43.58847 | -116.41770 | 4872 ft | 185 kts | 59° |
| 2026-05-04 16:57 | 43.59236 | -116.38551 | 4633 ft | 180 kts | 91° |
| 2026-05-04 16:58 | 43.59131 | -116.33286 | 4299 ft | 172 kts | 91° |
| 2026-05-04 16:58 | 43.59096 | -116.31644 | 4058 ft | 171 kts | 91° |
| 2026-05-04 16:59 | 43.58779 | -116.28433 | 3589 ft | 170 kts | 118° |
| 2026-05-04 17:00 | 43.56725 | -116.22829 | 2881 ft | 154 kts | 115° |
| 2026-05-04 17:00 | 43.56138 | -116.20874 | 2881 ft | 0 kts | 13° |
| 2026-05-04 17:03 | 43.56187 | -116.20907 | 2881 ft | 4 kts | 307° |
| 2026-05-04 17:04 | 43.56223 | -116.21001 | 2881 ft | 8 kts | 296° |
| 2026-05-04 17:04 | 43.56267 | -116.21128 | 2881 ft | 9 kts | 296° |
| 2026-05-04 17:05 | 43.56331 | -116.21315 | 2881 ft | 12 kts | 294° |
| 2026-05-04 17:05 | 43.56420 | -116.21571 | 2880 ft | 19 kts | 296° |
| 2026-05-04 17:06 | 43.56543 | -116.21728 | 2880 ft | 6 kts | 356° |
| 2026-05-04 17:06 | 43.56619 | -116.21725 | 2880 ft | 15 kts | 8° |
| 2026-05-04 17:07 | 43.56750 | -116.21736 | 2880 ft | 0 kts | 318° |
| 2026-05-04 17:07 | 43.56759 | -116.21748 | 2880 ft | 5 kts | 307° |
| 2026-05-04 17:07 | 43.56782 | -116.21788 | 2880 ft | 6 kts | 301° |
| 2026-05-04 17:08 | 43.56787 | -116.21822 | 2880 ft | 7 kts | 270° |
| 2026-05-04 17:08 | 43.56763 | -116.21866 | 2880 ft | 0 kts | 221° |